sensor_id;sensor_type;location;lat;lon;timestamp;pressure;altitude;pressure_sealevel;temperature;humidity
71735;BME280;59577;52.122;5.406;2023-07-08T00:01:18;101826.25;;;19.52;62.53
71735;BME280;59577;52.122;5.406;2023-07-08T00:03:46;101816.81;;;19.50;63.07
71735;BME280;59577;52.122;5.406;2023-07-08T00:06:18;101819.16;;;19.48;63.17
71735;BME280;59577;52.122;5.406;2023-07-08T00:08:46;101816.78;;;19.43;63.41
71735;BME280;59577;52.122;5.406;2023-07-08T00:11:13;101808.16;;;19.41;63.48
71735;BME280;59577;52.122;5.406;2023-07-08T00:13:40;101804.63;;;19.33;64.15
71735;BME280;59577;52.122;5.406;2023-07-08T00:16:11;101805.41;;;19.26;63.47
71735;BME280;59577;52.122;5.406;2023-07-08T00:18:38;101796.75;;;19.24;63.17
71735;BME280;59577;52.122;5.406;2023-07-08T00:21:10;101797.94;;;19.23;63.79
71735;BME280;59577;52.122;5.406;2023-07-08T00:23:49;101794.78;;;19.21;63.95
71735;BME280;59577;52.122;5.406;2023-07-08T00:26:22;101802.63;;;19.19;63.67
71735;BME280;59577;52.122;5.406;2023-07-08T00:28:50;101799.88;;;19.15;62.85
71735;BME280;59577;52.122;5.406;2023-07-08T00:31:17;101796.72;;;19.13;63.63
71735;BME280;59577;52.122;5.406;2023-07-08T00:33:50;101801.03;;;19.14;64.41
71735;BME280;59577;52.122;5.406;2023-07-08T00:36:17;101799.06;;;19.15;64.52
71735;BME280;59577;52.122;5.406;2023-07-08T00:38:43;101797.13;;;19.15;64.67
71735;BME280;59577;52.122;5.406;2023-07-08T00:41:16;101799.44;;;19.13;64.32
71735;BME280;59577;52.122;5.406;2023-07-08T00:43:50;101796.31;;;19.08;64.31
71735;BME280;59577;52.122;5.406;2023-07-08T00:51:45;101782.16;;;18.98;64.01
71735;BME280;59577;52.122;5.406;2023-07-08T00:54:16;101793.13;;;18.91;62.00
71735;BME280;59577;52.122;5.406;2023-07-08T00:56:50;101786.03;;;18.87;60.94
71735;BME280;59577;52.122;5.406;2023-07-08T00:59:32;101779.75;;;18.83;61.20
71735;BME280;59577;52.122;5.406;2023-07-08T01:02:03;101784.41;;;18.78;60.42
71735;BME280;59577;52.122;5.406;2023-07-08T01:04:42;101789.88;;;18.75;60.44
71735;BME280;59577;52.122;5.406;2023-07-08T01:07:12;101785.94;;;18.72;60.50
71735;BME280;59577;52.122;5.406;2023-07-08T01:09:43;101784.72;;;18.66;60.15
71735;BME280;59577;52.122;5.406;2023-07-08T01:12:15;101776.13;;;18.64;60.38
71735;BME280;59577;52.122;5.406;2023-07-08T01:14:43;101774.53;;;18.63;60.59
71735;BME280;59577;52.122;5.406;2023-07-08T01:17:11;101772.16;;;18.61;60.57
71735;BME280;59577;52.122;5.406;2023-07-08T01:19:44;101773.72;;;18.59;60.73
71735;BME280;59577;52.122;5.406;2023-07-08T01:22:11;101769.03;;;18.59;60.89
71735;BME280;59577;52.122;5.406;2023-07-08T01:24:42;101772.97;;;18.62;60.97
71735;BME280;59577;52.122;5.406;2023-07-08T01:27:13;101773.75;;;18.63;60.89
71735;BME280;59577;52.122;5.406;2023-07-08T01:29:41;101771.00;;;18.59;61.15
71735;BME280;59577;52.122;5.406;2023-07-08T01:32:11;101767.84;;;18.57;61.22
71735;BME280;59577;52.122;5.406;2023-07-08T01:34:45;101772.97;;;18.58;61.73
71735;BME280;59577;52.122;5.406;2023-07-08T01:37:37;101772.53;;;18.56;61.61
71735;BME280;59577;52.122;5.406;2023-07-08T01:42:40;101758.06;;;18.59;61.35
71735;BME280;59577;52.122;5.406;2023-07-08T01:45:14;101763.13;;;18.54;61.85
71735;BME280;59577;52.122;5.406;2023-07-08T01:47:42;101761.94;;;18.51;61.60
71735;BME280;59577;52.122;5.406;2023-07-08T01:50:11;101758.03;;;18.52;62.61
71735;BME280;59577;52.122;5.406;2023-07-08T01:52:38;101762.72;;;18.52;63.66
71735;BME280;59577;52.122;5.406;2023-07-08T01:55:06;101765.06;;;18.50;63.67
71735;BME280;59577;52.122;5.406;2023-07-08T01:57:33;101767.00;;;18.46;64.85
71735;BME280;59577;52.122;5.406;2023-07-08T01:59:59;101758.75;;;18.42;63.76
71735;BME280;59577;52.122;5.406;2023-07-08T02:02:26;101753.63;;;18.37;63.61
71735;BME280;59577;52.122;5.406;2023-07-08T02:04:52;101754.00;;;18.32;63.78
71735;BME280;59577;52.122;5.406;2023-07-08T02:07:19;101747.72;;;18.28;63.86
71735;BME280;59577;52.122;5.406;2023-07-08T02:09:45;101742.56;;;18.19;64.02
71735;BME280;59577;52.122;5.406;2023-07-08T02:12:12;101731.56;;;18.12;63.58
71735;BME280;59577;52.122;5.406;2023-07-08T02:14:38;101740.19;;;18.14;65.08
71735;BME280;59577;52.122;5.406;2023-07-08T02:17:05;101734.34;;;18.15;65.50
71735;BME280;59577;52.122;5.406;2023-07-08T02:19:32;101730.38;;;18.13;65.34
71735;BME280;59577;52.122;5.406;2023-07-08T02:21:58;101742.09;;;18.10;65.87
71735;BME280;59577;52.122;5.406;2023-07-08T02:24:25;101730.34;;;18.06;65.86
71735;BME280;59577;52.122;5.406;2023-07-08T02:26:51;101730.72;;;18.04;65.39
71735;BME280;59577;52.122;5.406;2023-07-08T02:29:18;101733.06;;;18.02;66.01
71735;BME280;59577;52.122;5.406;2023-07-08T02:31:45;101735.41;;;18.03;66.22
71735;BME280;59577;52.122;5.406;2023-07-08T02:34:11;101727.53;;;17.95;65.45
71735;BME280;59577;52.122;5.406;2023-07-08T02:36:38;101725.94;;;17.90;65.12
71735;BME280;59577;52.122;5.406;2023-07-08T02:39:05;101720.06;;;17.92;65.71
71735;BME280;59577;52.122;5.406;2023-07-08T02:41:32;101723.22;;;17.94;66.12
71735;BME280;59577;52.122;5.406;2023-07-08T02:43:58;101711.84;;;17.88;65.60
71735;BME280;59577;52.122;5.406;2023-07-08T02:46:25;101719.28;;;17.88;65.61
71735;BME280;59577;52.122;5.406;2023-07-08T02:48:51;101719.22;;;17.84;65.91
71735;BME280;59577;52.122;5.406;2023-07-08T02:51:18;101720.00;;;17.84;66.44
71735;BME280;59577;52.122;5.406;2023-07-08T02:53:45;101712.53;;;17.81;66.65
71735;BME280;59577;52.122;5.406;2023-07-08T02:56:11;101712.50;;;17.78;67.04
71735;BME280;59577;52.122;5.406;2023-07-08T02:58:38;101718.34;;;17.76;67.58
71735;BME280;59577;52.122;5.406;2023-07-08T03:01:05;101708.16;;;17.73;67.37
71735;BME280;59577;52.122;5.406;2023-07-08T03:03:32;101712.47;;;17.71;67.76
71735;BME280;59577;52.122;5.406;2023-07-08T03:06:03;101716.72;;;17.68;68.38
71735;BME280;59577;52.122;5.406;2023-07-08T03:08:31;101715.53;;;17.65;68.43
71735;BME280;59577;52.122;5.406;2023-07-08T03:11:03;101707.31;;;17.62;68.64
71735;BME280;59577;52.122;5.406;2023-07-08T03:13:31;101713.50;;;17.55;67.57
71735;BME280;59577;52.122;5.406;2023-07-08T03:15:59;101705.66;;;17.54;68.47
71735;BME280;59577;52.122;5.406;2023-07-08T03:18:27;101711.88;;;17.51;69.02
71735;BME280;59577;52.122;5.406;2023-07-08T03:20:55;101707.16;;;17.47;69.02
71735;BME280;59577;52.122;5.406;2023-07-08T03:23:24;101704.41;;;17.44;68.65
71735;BME280;59577;52.122;5.406;2023-07-08T03:25:51;101706.75;;;17.45;69.19
71735;BME280;59577;52.122;5.406;2023-07-08T03:28:18;101712.22;;;17.45;69.32
71735;BME280;59577;52.122;5.406;2023-07-08T03:30:45;101707.94;;;17.44;69.07
71735;BME280;59577;52.122;5.406;2023-07-08T03:33:11;101713.78;;;17.43;69.34
71735;BME280;59577;52.122;5.406;2023-07-08T03:35:38;101714.56;;;17.43;69.84
71735;BME280;59577;52.122;5.406;2023-07-08T03:38:05;101711.44;;;17.41;69.86
71735;BME280;59577;52.122;5.406;2023-07-08T03:40:32;101713.38;;;17.41;70.08
71735;BME280;59577;52.122;5.406;2023-07-08T03:42:58;101715.69;;;17.39;69.93
71735;BME280;59577;52.122;5.406;2023-07-08T03:45:25;101717.66;;;17.38;70.38
71735;BME280;59577;52.122;5.406;2023-07-08T03:47:53;101720.38;;;17.38;70.22
71735;BME280;59577;52.122;5.406;2023-07-08T03:50:25;101716.84;;;17.34;70.30
71735;BME280;59577;52.122;5.406;2023-07-08T03:52:53;101718.78;;;17.34;70.86
71735;BME280;59577;52.122;5.406;2023-07-08T03:55:21;101723.06;;;17.31;70.81
71735;BME280;59577;52.122;5.406;2023-07-08T03:57:48;101723.44;;;17.29;71.17
71735;BME280;59577;52.122;5.406;2023-07-08T04:00:14;101724.59;;;17.28;71.25
71735;BME280;59577;52.122;5.406;2023-07-08T04:02:42;101716.38;;;17.28;71.56
71735;BME280;59577;52.122;5.406;2023-07-08T04:05:20;101718.31;;;17.28;71.37
71735;BME280;59577;52.122;5.406;2023-07-08T04:07:47;101720.28;;;17.27;71.65
71735;BME280;59577;52.122;5.406;2023-07-08T04:10:15;101714.81;;;17.27;71.47
71735;BME280;59577;52.122;5.406;2023-07-08T04:12:43;101717.94;;;17.26;71.99
71735;BME280;59577;52.122;5.406;2023-07-08T04:15:10;101722.25;;;17.27;72.26
71735;BME280;59577;52.122;5.406;2023-07-08T04:17:41;101736.34;;;17.29;72.44
71735;BME280;59577;52.122;5.406;2023-07-08T04:20:10;101724.63;;;17.32;71.78
71735;BME280;59577;52.122;5.406;2023-07-08T04:22:37;101728.56;;;17.35;72.30
71735;BME280;59577;52.122;5.406;2023-07-08T04:25:04;101724.31;;;17.37;72.14
71735;BME280;59577;52.122;5.406;2023-07-08T04:27:31;101725.88;;;17.42;72.19
71735;BME280;59577;52.122;5.406;2023-07-08T04:29:58;101726.75;;;17.50;71.49
71735;BME280;59577;52.122;5.406;2023-07-08T04:32:24;101715.84;;;17.53;71.71
71735;BME280;59577;52.122;5.406;2023-07-08T04:34:52;101715.50;;;17.58;71.31
71735;BME280;59577;52.122;5.406;2023-07-08T04:37:19;101721.41;;;17.64;71.15
71735;BME280;59577;52.122;5.406;2023-07-08T04:39:46;101726.53;;;17.69;71.08
71735;BME280;59577;52.122;5.406;2023-07-08T04:42:14;101727.75;;;17.75;71.32
71735;BME280;59577;52.122;5.406;2023-07-08T04:44:43;101730.91;;;17.77;69.25
71735;BME280;59577;52.122;5.406;2023-07-08T04:47:10;101725.06;;;17.82;69.89
71735;BME280;59577;52.122;5.406;2023-07-08T04:49:40;101725.16;;;17.90;69.24
71735;BME280;59577;52.122;5.406;2023-07-08T04:52:10;101726.34;;;17.92;67.69
71735;BME280;59577;52.122;5.406;2023-07-08T04:54:36;101725.97;;;17.97;68.08
71735;BME280;59577;52.122;5.406;2023-07-08T04:57:03;101733.47;;;18.04;67.32
71735;BME280;59577;52.122;5.406;2023-07-08T04:59:30;101718.63;;;18.09;67.05
71735;BME280;59577;52.122;5.406;2023-07-08T05:02:01;101724.13;;;18.12;66.88
71735;BME280;59577;52.122;5.406;2023-07-08T05:04:28;101729.28;;;18.21;66.31
71735;BME280;59577;52.122;5.406;2023-07-08T05:06:55;101728.94;;;18.30;66.75
71735;BME280;59577;52.122;5.406;2023-07-08T05:09:22;101721.94;;;18.36;66.26
71735;BME280;59577;52.122;5.406;2023-07-08T05:11:52;101721.16;;;18.46;65.40
71735;BME280;59577;52.122;5.406;2023-07-08T05:14:19;101705.97;;;18.59;65.21
71735;BME280;59577;52.122;5.406;2023-07-08T05:16:46;101709.16;;;18.72;65.22
71735;BME280;59577;52.122;5.406;2023-07-08T05:19:12;101710.00;;;18.91;64.56
71735;BME280;59577;52.122;5.406;2023-07-08T05:21:39;101709.69;;;19.14;63.73
71735;BME280;59577;52.122;5.406;2023-07-08T05:24:06;101703.44;;;19.24;63.18
71735;BME280;59577;52.122;5.406;2023-07-08T05:26:33;101711.28;;;19.51;61.99
71735;BME280;59577;52.122;5.406;2023-07-08T05:29:00;101712.88;;;19.66;61.33
71735;BME280;59577;52.122;5.406;2023-07-08T05:31:27;101715.19;;;19.97;61.57
71735;BME280;59577;52.122;5.406;2023-07-08T05:34:13;101712.88;;;21.05;58.77
71735;BME280;59577;52.122;5.406;2023-07-08T05:36:40;101714.91;;;22.37;54.95
71735;BME280;59577;52.122;5.406;2023-07-08T05:39:07;101718.13;;;23.71;51.10
71735;BME280;59577;52.122;5.406;2023-07-08T05:41:34;101711.53;;;24.89;47.52
71735;BME280;59577;52.122;5.406;2023-07-08T05:44:01;101718.66;;;26.18;45.11
71735;BME280;59577;52.122;5.406;2023-07-08T05:46:28;101713.47;;;26.88;42.59
71735;BME280;59577;52.122;5.406;2023-07-08T05:48:54;101711.97;;;27.60;41.98
71735;BME280;59577;52.122;5.406;2023-07-08T05:51:22;101701.81;;;28.23;39.12
71735;BME280;59577;52.122;5.406;2023-07-08T05:53:49;101695.19;;;29.42;38.26
71735;BME280;59577;52.122;5.406;2023-07-08T05:56:15;101694.41;;;30.68;36.30
71735;BME280;59577;52.122;5.406;2023-07-08T05:58:42;101692.91;;;31.48;34.82
71735;BME280;59577;52.122;5.406;2023-07-08T06:01:08;101701.06;;;31.61;33.75
71735;BME280;59577;52.122;5.406;2023-07-08T06:03:37;101706.78;;;31.43;34.12
71735;BME280;59577;52.122;5.406;2023-07-08T06:06:03;101701.28;;;31.73;33.76
71735;BME280;59577;52.122;5.406;2023-07-08T06:08:34;101700.72;;;31.68;32.84
71735;BME280;59577;52.122;5.406;2023-07-08T06:11:00;101700.84;;;32.04;32.12
71735;BME280;59577;52.122;5.406;2023-07-08T06:13:27;101705.75;;;31.79;31.96
71735;BME280;59577;52.122;5.406;2023-07-08T06:15:54;101705.44;;;31.77;32.33
71735;BME280;59577;52.122;5.406;2023-07-08T06:18:21;101703.09;;;32.45;31.73
71735;BME280;59577;52.122;5.406;2023-07-08T06:20:55;101700.84;;;32.99;31.59
71735;BME280;59577;52.122;5.406;2023-07-08T06:23:23;101699.63;;;33.41;30.89
71735;BME280;59577;52.122;5.406;2023-07-08T06:25:50;101689.03;;;33.71;29.59
71735;BME280;59577;52.122;5.406;2023-07-08T06:28:17;101693.97;;;34.35;28.83
71735;BME280;59577;52.122;5.406;2023-07-08T06:30:44;101692.28;;;34.86;28.04
71735;BME280;59577;52.122;5.406;2023-07-08T06:33:10;101694.41;;;34.59;28.63
71735;BME280;59577;52.122;5.406;2023-07-08T06:35:38;101700.69;;;34.75;28.62
71735;BME280;59577;52.122;5.406;2023-07-08T06:38:06;101698.84;;;34.40;27.60
71735;BME280;59577;52.122;5.406;2023-07-08T06:40:33;101708.53;;;34.33;28.04
71735;BME280;59577;52.122;5.406;2023-07-08T06:43:01;101697.06;;;34.37;27.79
71735;BME280;59577;52.122;5.406;2023-07-08T06:45:28;101706.88;;;34.53;28.29
71735;BME280;59577;52.122;5.406;2023-07-08T06:47:55;101703.38;;;34.63;28.08
71735;BME280;59577;52.122;5.406;2023-07-08T06:50:21;101708.69;;;33.98;28.54
71735;BME280;59577;52.122;5.406;2023-07-08T06:52:48;101706.50;;;34.34;27.92
71735;BME280;59577;52.122;5.406;2023-07-08T06:55:14;101698.34;;;34.09;29.30
71735;BME280;59577;52.122;5.406;2023-07-08T06:57:41;101693.56;;;34.47;28.26
71735;BME280;59577;52.122;5.406;2023-07-08T07:00:10;101692.09;;;34.58;27.98
71735;BME280;59577;52.122;5.406;2023-07-08T07:02:37;101696.09;;;34.45;28.97
71735;BME280;59577;52.122;5.406;2023-07-08T07:05:04;101696.72;;;35.04;28.39
71735;BME280;59577;52.122;5.406;2023-07-08T07:07:31;101696.41;;;34.85;28.30
71735;BME280;59577;52.122;5.406;2023-07-08T07:09:57;101694.16;;;35.00;27.49
71735;BME280;59577;52.122;5.406;2023-07-08T07:12:24;101690.09;;;35.07;27.70
71735;BME280;59577;52.122;5.406;2023-07-08T07:14:52;101693.94;;;34.66;28.13
71735;BME280;59577;52.122;5.406;2023-07-08T07:17:23;101692.88;;;34.58;28.19
71735;BME280;59577;52.122;5.406;2023-07-08T07:19:50;101689.09;;;34.67;27.94
71735;BME280;59577;52.122;5.406;2023-07-08T07:22:17;101692.94;;;34.70;27.26
71735;BME280;59577;52.122;5.406;2023-07-08T07:24:44;101684.38;;;34.47;27.97
71735;BME280;59577;52.122;5.406;2023-07-08T07:27:10;101687.88;;;34.74;28.11
71735;BME280;59577;52.122;5.406;2023-07-08T07:29:49;101687.63;;;34.77;28.49
71735;BME280;59577;52.122;5.406;2023-07-08T07:32:18;101696.25;;;34.68;27.89
71735;BME280;59577;52.122;5.406;2023-07-08T07:34:48;101694.72;;;34.67;28.75
71735;BME280;59577;52.122;5.406;2023-07-08T07:37:17;101691.56;;;34.22;30.08
71735;BME280;59577;52.122;5.406;2023-07-08T07:39:44;101679.19;;;34.72;29.13
71735;BME280;59577;52.122;5.406;2023-07-08T07:42:11;101684.69;;;34.98;30.47
71735;BME280;59577;52.122;5.406;2023-07-08T07:44:41;101686.63;;;34.75;28.85
71735;BME280;59577;52.122;5.406;2023-07-08T07:47:09;101684.91;;;34.89;28.70
71735;BME280;59577;52.122;5.406;2023-07-08T07:49:35;101693.94;;;34.66;28.82
71735;BME280;59577;52.122;5.406;2023-07-08T07:52:03;101682.94;;;34.31;29.12
71735;BME280;59577;52.122;5.406;2023-07-08T07:54:30;101675.63;;;34.45;28.73
71735;BME280;59577;52.122;5.406;2023-07-08T07:56:57;101676.50;;;34.62;29.29
71735;BME280;59577;52.122;5.406;2023-07-08T07:59:23;101668.63;;;34.66;30.12
71735;BME280;59577;52.122;5.406;2023-07-08T08:01:50;101672.06;;;34.82;29.16
71735;BME280;59577;52.122;5.406;2023-07-08T08:04:17;101665.94;;;34.83;29.36
71735;BME280;59577;52.122;5.406;2023-07-08T08:06:43;101676.06;;;34.70;29.69
71735;BME280;59577;52.122;5.406;2023-07-08T08:09:10;101667.22;;;34.88;29.67
71735;BME280;59577;52.122;5.406;2023-07-08T08:11:36;101664.16;;;34.86;28.59
71735;BME280;59577;52.122;5.406;2023-07-08T08:14:03;101659.56;;;34.45;29.97
71735;BME280;59577;52.122;5.406;2023-07-08T08:16:31;101662.38;;;34.45;30.34
71735;BME280;59577;52.122;5.406;2023-07-08T08:18:57;101659.00;;;34.09;28.64
71735;BME280;59577;52.122;5.406;2023-07-08T08:21:24;101665.00;;;33.70;29.59
71735;BME280;59577;52.122;5.406;2023-07-08T08:23:50;101669.13;;;34.01;30.15
71735;BME280;59577;52.122;5.406;2023-07-08T08:26:17;101671.56;;;34.14;31.61
71735;BME280;59577;52.122;5.406;2023-07-08T08:28:43;101669.91;;;34.02;31.56
71735;BME280;59577;52.122;5.406;2023-07-08T08:31:10;101677.69;;;34.44;29.24
71735;BME280;59577;52.122;5.406;2023-07-08T08:33:37;101674.41;;;34.52;28.93
71735;BME280;59577;52.122;5.406;2023-07-08T08:36:04;101670.50;;;34.43;29.46
71735;BME280;59577;52.122;5.406;2023-07-08T08:38:30;101669.13;;;34.27;29.86
71735;BME280;59577;52.122;5.406;2023-07-08T08:41:03;101669.50;;;34.15;30.83
71735;BME280;59577;52.122;5.406;2023-07-08T08:43:38;101676.88;;;34.12;30.24
71735;BME280;59577;52.122;5.406;2023-07-08T08:46:12;101688.06;;;34.33;31.01
71735;BME280;59577;52.122;5.406;2023-07-08T08:48:52;101683.03;;;34.42;29.76
71735;BME280;59577;52.122;5.406;2023-07-08T08:51:21;101690.13;;;34.70;30.49
71735;BME280;59577;52.122;5.406;2023-07-08T08:53:52;101687.56;;;34.66;30.55
71735;BME280;59577;52.122;5.406;2023-07-08T08:56:24;101683.88;;;34.92;30.64
71735;BME280;59577;52.122;5.406;2023-07-08T08:59:01;101684.81;;;34.72;30.31
71735;BME280;59577;52.122;5.406;2023-07-08T09:01:29;101682.09;;;34.51;31.50
71735;BME280;59577;52.122;5.406;2023-07-08T09:04:10;101687.75;;;34.94;30.47
71735;BME280;59577;52.122;5.406;2023-07-08T09:06:39;101679.72;;;34.44;27.31
71735;BME280;59577;52.122;5.406;2023-07-08T09:09:15;101685.94;;;34.22;29.84
71735;BME280;59577;52.122;5.406;2023-07-08T09:11:51;101685.63;;;34.46;29.02
71735;BME280;59577;52.122;5.406;2023-07-08T09:14:28;101684.31;;;34.41;28.89
71735;BME280;59577;52.122;5.406;2023-07-08T09:17:24;101683.16;;;34.59;29.59
71735;BME280;59577;52.122;5.406;2023-07-08T09:22:40;101680.34;;;34.59;28.84
71735;BME280;59577;52.122;5.406;2023-07-08T09:25:23;101686.75;;;34.97;28.36
71735;BME280;59577;52.122;5.406;2023-07-08T09:27:50;101674.00;;;35.13;29.12
71735;BME280;59577;52.122;5.406;2023-07-08T09:30:19;101681.28;;;35.37;28.07
71735;BME280;59577;52.122;5.406;2023-07-08T09:32:50;101677.19;;;35.44;28.25
71735;BME280;59577;52.122;5.406;2023-07-08T09:37:47;101678.50;;;35.43;27.91
71735;BME280;59577;52.122;5.406;2023-07-08T09:40:28;101677.69;;;35.25;28.51
71735;BME280;59577;52.122;5.406;2023-07-08T09:43:02;101675.28;;;35.84;27.65
71735;BME280;59577;52.122;5.406;2023-07-08T09:45:40;101672.22;;;35.93;27.79
71735;BME280;59577;52.122;5.406;2023-07-08T09:48:16;101678.13;;;36.35;26.89
71735;BME280;59577;52.122;5.406;2023-07-08T09:50:44;101681.19;;;36.08;25.68
71735;BME280;59577;52.122;5.406;2023-07-08T09:53:13;101670.91;;;35.77;25.64
71735;BME280;59577;52.122;5.406;2023-07-08T09:55:40;101674.78;;;35.96;26.53
71735;BME280;59577;52.122;5.406;2023-07-08T09:58:11;101675.31;;;36.06;25.85
71735;BME280;59577;52.122;5.406;2023-07-08T10:00:42;101687.75;;;35.66;26.07
71735;BME280;59577;52.122;5.406;2023-07-08T10:03:19;101684.25;;;36.10;25.76
71735;BME280;59577;52.122;5.406;2023-07-08T10:05:48;101678.63;;;36.16;26.23
71735;BME280;59577;52.122;5.406;2023-07-08T10:08:18;101689.63;;;35.91;27.28
71735;BME280;59577;52.122;5.406;2023-07-08T10:10:49;101676.31;;;35.92;27.93
71735;BME280;59577;52.122;5.406;2023-07-08T10:13:37;101685.25;;;35.90;26.91
71735;BME280;59577;52.122;5.406;2023-07-08T10:16:19;101691.25;;;35.27;25.67
71735;BME280;59577;52.122;5.406;2023-07-08T10:18:47;101686.03;;;35.14;26.05
71735;BME280;59577;52.122;5.406;2023-07-08T10:21:19;101682.63;;;35.64;26.80
71735;BME280;59577;52.122;5.406;2023-07-08T10:23:54;101681.25;;;35.31;28.49
71735;BME280;59577;52.122;5.406;2023-07-08T10:26:27;101677.19;;;35.38;26.44
71735;BME280;59577;52.122;5.406;2023-07-08T10:32:02;101672.50;;;35.18;27.57
71735;BME280;59577;52.122;5.406;2023-07-08T10:34:42;101663.47;;;35.02;27.71
71735;BME280;59577;52.122;5.406;2023-07-08T10:37:22;101663.63;;;35.31;27.47
71735;BME280;59577;52.122;5.406;2023-07-08T10:39:58;101670.56;;;35.47;27.28
71735;BME280;59577;52.122;5.406;2023-07-08T10:50:56;101675.50;;;35.74;30.56
71735;BME280;59577;52.122;5.406;2023-07-08T10:56:16;101664.38;;;35.26;27.44
71735;BME280;59577;52.122;5.406;2023-07-08T11:01:40;101650.50;;;35.16;27.73
71735;BME280;59577;52.122;5.406;2023-07-08T11:06:50;101647.13;;;35.07;27.03
71735;BME280;59577;52.122;5.406;2023-07-08T11:09:26;101657.56;;;35.00;28.19
71735;BME280;59577;52.122;5.406;2023-07-08T11:12:00;101655.66;;;35.29;30.67
71735;BME280;59577;52.122;5.406;2023-07-08T11:14:59;101658.59;;;35.74;29.07
71735;BME280;59577;52.122;5.406;2023-07-08T11:17:38;101649.66;;;35.82;28.88
71735;BME280;59577;52.122;5.406;2023-07-08T11:20:49;101647.06;;;35.67;27.81
71735;BME280;59577;52.122;5.406;2023-07-08T11:24:23;101650.00;;;35.18;28.89
71735;BME280;59577;52.122;5.406;2023-07-08T11:26:33;101660.59;;;35.51;29.33
71735;BME280;59577;52.122;5.406;2023-07-08T11:29:14;101649.63;;;35.65;28.01
71735;BME280;59577;52.122;5.406;2023-07-08T11:31:42;101638.13;;;35.80;27.48
71735;BME280;59577;52.122;5.406;2023-07-08T11:34:10;101643.00;;;35.90;27.24
71735;BME280;59577;52.122;5.406;2023-07-08T11:36:39;101650.44;;;35.82;26.70
71735;BME280;59577;52.122;5.406;2023-07-08T11:39:38;101646.56;;;35.68;27.72
71735;BME280;59577;52.122;5.406;2023-07-08T11:44:57;101643.16;;;35.42;28.67
71735;BME280;59577;52.122;5.406;2023-07-08T11:47:43;101649.56;;;35.42;28.55
71735;BME280;59577;52.122;5.406;2023-07-08T11:50:22;101648.78;;;35.30;28.24
71735;BME280;59577;52.122;5.406;2023-07-08T11:52:53;101641.22;;;35.05;27.49
71735;BME280;59577;52.122;5.406;2023-07-08T11:55:43;101642.59;;;35.26;27.95
71735;BME280;59577;52.122;5.406;2023-07-08T11:58:24;101641.41;;;35.55;27.90
71735;BME280;59577;52.122;5.406;2023-07-08T12:00:59;101631.44;;;35.54;27.68
71735;BME280;59577;52.122;5.406;2023-07-08T12:03:47;101642.91;;;35.45;27.36
71735;BME280;59577;52.122;5.406;2023-07-08T12:08:54;101635.00;;;35.66;27.81
71735;BME280;59577;52.122;5.406;2023-07-08T12:11:35;101628.34;;;35.64;27.55
71735;BME280;59577;52.122;5.406;2023-07-08T12:14:03;101630.34;;;35.35;27.45
71735;BME280;59577;52.122;5.406;2023-07-08T12:16:31;101632.63;;;35.25;28.47
71735;BME280;59577;52.122;5.406;2023-07-08T12:19:00;101625.47;;;35.24;27.43
71735;BME280;59577;52.122;5.406;2023-07-08T12:21:27;101630.13;;;35.44;28.08
71735;BME280;59577;52.122;5.406;2023-07-08T12:23:54;101622.69;;;35.41;27.69
71735;BME280;59577;52.122;5.406;2023-07-08T12:26:22;101625.47;;;35.30;28.22
71735;BME280;59577;52.122;5.406;2023-07-08T12:28:51;101623.19;;;35.45;28.24
71735;BME280;59577;52.122;5.406;2023-07-08T12:31:20;101618.38;;;35.68;27.00
71735;BME280;59577;52.122;5.406;2023-07-08T12:33:49;101610.41;;;35.61;26.00
71735;BME280;59577;52.122;5.406;2023-07-08T12:36:22;101616.81;;;35.56;27.25
71735;BME280;59577;52.122;5.406;2023-07-08T12:38:52;101610.97;;;35.76;26.30
71735;BME280;59577;52.122;5.406;2023-07-08T12:41:25;101605.31;;;35.65;26.82
71735;BME280;59577;52.122;5.406;2023-07-08T12:43:54;101607.09;;;35.57;28.00
71735;BME280;59577;52.122;5.406;2023-07-08T12:46:22;101604.06;;;35.72;25.46
71735;BME280;59577;52.122;5.406;2023-07-08T12:48:49;101601.00;;;35.75;24.95
71735;BME280;59577;52.122;5.406;2023-07-08T12:51:21;101604.03;;;35.66;24.40
71735;BME280;59577;52.122;5.406;2023-07-08T12:53:48;101602.72;;;35.56;23.32
71735;BME280;59577;52.122;5.406;2023-07-08T12:56:15;101602.75;;;35.67;23.50
71735;BME280;59577;52.122;5.406;2023-07-08T12:58:45;101602.00;;;35.78;25.31
71735;BME280;59577;52.122;5.406;2023-07-08T13:01:30;101610.44;;;35.67;25.26
71735;BME280;59577;52.122;5.406;2023-07-08T13:04:09;101603.28;;;35.94;25.24
71735;BME280;59577;52.122;5.406;2023-07-08T13:06:38;101597.88;;;35.56;24.70
71735;BME280;59577;52.122;5.406;2023-07-08T13:09:16;101597.88;;;35.51;24.28
71735;BME280;59577;52.122;5.406;2023-07-08T13:11:47;101598.38;;;35.61;23.56
71735;BME280;59577;52.122;5.406;2023-07-08T13:14:14;101602.28;;;35.74;22.89
71735;BME280;59577;52.122;5.406;2023-07-08T13:16:41;101605.81;;;35.69;22.96
71735;BME280;59577;52.122;5.406;2023-07-08T13:19:11;101605.06;;;36.03;23.39
71735;BME280;59577;52.122;5.406;2023-07-08T13:21:39;101595.63;;;35.94;23.20
71735;BME280;59577;52.122;5.406;2023-07-08T13:24:09;101596.38;;;36.12;23.81
71735;BME280;59577;52.122;5.406;2023-07-08T13:26:37;101592.50;;;36.09;23.49
71735;BME280;59577;52.122;5.406;2023-07-08T13:29:15;101592.00;;;36.17;22.48
71735;BME280;59577;52.122;5.406;2023-07-08T13:31:47;101596.88;;;35.99;22.53
71735;BME280;59577;52.122;5.406;2023-07-08T13:34:19;101592.78;;;36.17;22.98
71735;BME280;59577;52.122;5.406;2023-07-08T13:36:49;101594.28;;;36.35;24.17
71735;BME280;59577;52.122;5.406;2023-07-08T13:39:22;101590.47;;;36.21;23.45
71735;BME280;59577;52.122;5.406;2023-07-08T13:41:51;101593.31;;;35.99;23.62
71735;BME280;59577;52.122;5.406;2023-07-08T13:44:18;101592.00;;;35.94;23.41